Time;durP1;ratioP1;P1;durP2;ratioP2;P2;SDS_P1;SDS_P2;PMS_P1;PMS_P2;Temp;Humidity;BMP_temperature;BMP_pressure;BME280_temperature;BME280_humidity;BME280_pressure;Samples;Min_cycle;Max_cycle;Signal;HPM_P1;HPM_P2
2020/12/14 00:02:12;;;;;;;0.60;0.50;;;;;;;5.78;100.00;100911.88;5054170;28;20462;-69
2020/12/14 00:04:38;;;;;;;11.47;2.17;;;;;;;5.77;100.00;100912.94;5054098;28;20524;-68
2020/12/14 00:07:05;;;;;;;20.73;4.10;;;;;;;5.79;100.00;100905.41;5054077;28;20491;-70
2020/12/14 00:09:31;;;;;;;2.30;1.03;;;;;;;5.69;100.00;100908.06;5054027;28;20438;-69
2020/12/14 00:11:58;;;;;;;1.67;1.57;;;;;;;5.74;100.00;100908.09;5053578;28;21025;-69
2020/12/14 00:14:24;;;;;;;6.80;1.63;;;;;;;5.75;100.00;100916.94;5054342;28;21057;-68
2020/12/14 00:16:51;;;;;;;0.80;0.80;;;;;;;5.73;100.00;100924.47;5053925;28;20474;-68
2020/12/14 00:19:17;;;;;;;3.73;2.87;;;;;;;5.75;100.00;100912.38;5054070;28;20438;-68
2020/12/14 00:21:44;;;;;;;2.60;1.37;;;;;;;5.77;100.00;100923.69;5053491;28;20492;-68
2020/12/14 00:24:10;;;;;;;0.63;0.50;;;;;;;5.79;100.00;100928.81;5053644;28;20454;-68
2020/12/14 00:26:36;;;;;;;1.67;1.57;;;;;;;5.69;100.00;100916.13;5053393;28;20860;-68
2020/12/14 00:29:02;;;;;;;22.47;3.20;;;;;;;5.71;100.00;100919.38;5053640;28;20504;-69
2020/12/14 00:31:29;;;;;;;10.03;1.90;;;;;;;5.73;100.00;100911.84;5053608;28;20488;-68
2020/12/14 00:33:56;;;;;;;11.90;2.83;;;;;;;5.73;100.00;100916.41;5053035;28;20971;-67
2020/12/14 00:36:22;;;;;;;2.07;1.00;;;;;;;5.79;100.00;100915.38;5052651;28;20458;-68
2020/12/14 00:38:48;;;;;;;8.60;2.07;;;;;;;5.75;100.00;100909.69;5053490;28;20488;-69
2020/12/14 00:41:18;;;;;;;5.70;1.97;;;;;;;5.83;100.00;100906.50;5053634;28;20438;-69
2020/12/14 00:43:44;;;;;;;2.27;1.90;;;;;;;5.88;100.00;100896.84;5053377;28;20443;-68
2020/12/14 00:46:11;;;;;;;0.80;0.60;;;;;;;5.90;100.00;100905.50;5053136;28;20492;-67
2020/12/14 00:48:38;;;;;;;0.73;0.73;;;;;;;5.95;100.00;100908.22;5053127;28;20473;-67
2020/12/14 00:51:05;;;;;;;1.40;1.30;;;;;;;6.00;100.00;100911.75;5052977;28;20964;-68
2020/12/14 00:53:32;;;;;;;4.50;2.40;;;;;;;6.05;100.00;100921.72;5052936;28;21084;-67
2020/12/14 00:56:01;;;;;;;0.73;0.70;;;;;;;6.06;100.00;100923.31;5053133;28;20516;-68
2020/12/14 00:58:27;;;;;;;12.33;2.80;;;;;;;6.04;100.00;100922.78;5053282;28;20495;-67
2020/12/14 01:00:53;;;;;;;2.47;2.27;;;;;;;6.04;100.00;100922.78;5052859;28;20450;-69
2020/12/14 01:03:19;;;;;;;18.27;1.23;;;;;;;6.05;100.00;100929.78;5052864;28;20828;-65
2020/12/14 01:05:46;;;;;;;2.43;0.93;;;;;;;6.02;100.00;100927.59;5052423;28;20466;-69
2020/12/14 01:08:13;;;;;;;2.60;1.90;;;;;;;5.96;100.00;100931.34;5052586;28;20461;-69
2020/12/14 01:10:39;;;;;;;0.90;0.47;;;;;;;5.92;100.00;100931.06;5053107;28;20507;-69
2020/12/14 01:13:05;;;;;;;6.63;3.17;;;;;;;5.95;100.00;100927.03;5053025;28;20837;-69
2020/12/14 01:15:31;;;;;;;1.93;1.83;;;;;;;5.90;100.00;100932.38;5053001;28;20461;-68
2020/12/14 01:17:57;;;;;;;2.20;2.03;;;;;;;5.88;100.00;100939.88;5053053;28;20496;-69
2020/12/14 01:20:24;;;;;;;1.17;1.13;;;;;;;5.91;100.00;100936.66;5052763;28;20460;-68
2020/12/14 01:22:50;;;;;;;1.47;1.37;;;;;;;5.86;100.00;100944.72;5052836;28;20854;-69
2020/12/14 01:25:17;;;;;;;2.03;1.17;;;;;;;5.87;100.00;100943.63;5052612;28;20843;-68
2020/12/14 01:27:43;;;;;;;3.43;2.93;;;;;;;5.83;100.00;100932.59;5052750;28;20847;-68
2020/12/14 01:30:09;;;;;;;1.67;1.43;;;;;;;5.86;100.00;100932.06;5053001;28;20523;-67
2020/12/14 01:32:35;;;;;;;0.70;0.67;;;;;;;5.88;100.00;100934.50;5052879;28;20482;-67
2020/12/14 01:35:02;;;;;;;2.40;1.80;;;;;;;5.92;100.00;100931.06;5052574;28;20505;-68
2020/12/14 01:37:28;;;;;;;3.13;0.83;;;;;;;5.96;100.00;100924.09;5052711;28;20828;-68
2020/12/14 01:39:54;;;;;;;8.03;1.57;;;;;;;6.00;100.00;100935.13;5052508;28;20446;-68
2020/12/14 01:42:22;;;;;;;2.13;2.00;;;;;;;5.99;100.00;100936.22;5052800;28;20859;-68
2020/12/14 01:44:49;;;;;;;1.83;1.73;;;;;;;5.99;100.00;100937.03;5052713;28;20465;-68
2020/12/14 01:47:20;;;;;;;1.17;0.60;;;;;;;6.04;100.00;100941.59;5052829;28;20860;-68
2020/12/14 01:49:46;;;;;;;2.83;0.70;;;;;;;6.04;100.00;100928.16;5052813;28;20436;-68
2020/12/14 01:52:12;;;;;;;4.70;1.97;;;;;;;5.97;100.00;100916.81;5052666;28;20571;-68
2020/12/14 01:54:39;;;;;;;3.13;0.97;;;;;;;6.02;100.00;100922.22;5053107;28;20895;-68
2020/12/14 01:57:05;;;;;;;2.70;2.07;;;;;;;5.92;100.00;100930.25;5052489;28;20943;-68
2020/12/14 01:59:32;;;;;;;2.20;2.10;;;;;;;5.88;100.00;100929.13;5052619;28;20442;-67
2020/12/14 02:01:59;;;;;;;5.70;1.90;;;;;;;5.91;100.00;100931.28;5052298;28;20431;-68
2020/12/14 02:04:25;;;;;;;10.30;1.97;;;;;;;5.89;100.00;100933.41;5052520;28;20494;-68
2020/12/14 02:06:51;;;;;;;2.17;1.27;;;;;;;5.84;100.00;100934.19;5052611;28;20442;-69
2020/12/14 02:09:17;;;;;;;5.97;0.87;;;;;;;5.80;100.00;100933.13;5052600;28;20442;-68
2020/12/14 02:11:43;;;;;;;0.60;0.57;;;;;;;5.81;100.00;100932.06;5052538;28;20504;-68
2020/12/14 02:14:10;;;;;;;3.10;2.40;;;;;;;5.77;100.00;100929.06;5052447;28;20504;-66
2020/12/14 02:16:37;;;;;;;3.13;2.00;;;;;;;5.72;100.00;100915.59;5052214;28;20439;-71
2020/12/14 02:19:03;;;;;;;5.90;3.67;;;;;;;5.67;100.00;100909.41;5055184;28;20442;-67
2020/12/14 02:21:29;;;;;;;11.83;1.73;;;;;;;5.69;100.00;100910.75;5055702;28;21016;-69
2020/12/14 02:23:56;;;;;;;1.00;1.00;;;;;;;5.61;100.00;100905.84;5055733;28;20994;-69
2020/12/14 02:26:23;;;;;;;0.70;0.70;;;;;;;5.66;100.00;100892.44;5055702;28;20469;-68
2020/12/14 02:28:49;;;;;;;0.57;0.57;;;;;;;5.64;100.00;100897.28;5055951;28;20490;-69
2020/12/14 02:31:15;;;;;;;2.03;1.80;;;;;;;5.69;100.00;100897.31;5055897;28;20488;-67
2020/12/14 02:33:41;;;;;;;3.50;0.97;;;;;;;5.70;100.00;100900.81;5055424;28;20526;-68
2020/12/14 02:36:08;;;;;;;7.83;4.07;;;;;;;5.71;100.00;100905.09;5055414;28;20956;-69
2020/12/14 02:38:34;;;;;;;5.10;2.27;;;;;;;5.73;100.00;100914.53;5055749;28;20482;-68
2020/12/14 02:41:00;;;;;;;7.03;1.53;;;;;;;5.76;100.00;100911.34;5055420;28;20480;-69
2020/12/14 02:43:27;;;;;;;2.10;1.40;;;;;;;5.77;100.00;100907.56;5055614;28;20823;-68
2020/12/14 02:45:53;;;;;;;1.13;0.90;;;;;;;5.81;100.00;100911.34;5055277;28;20897;-69
2020/12/14 02:48:19;;;;;;;7.53;2.90;;;;;;;5.85;100.00;100908.16;5055591;28;20438;-69
2020/12/14 02:50:45;;;;;;;4.47;1.43;;;;;;;5.87;100.00;100906.81;5055525;28;20445;-69
2020/12/14 02:53:12;;;;;;;11.63;1.20;;;;;;;5.84;100.00;100901.94;5055361;28;20482;-68
2020/12/14 02:55:38;;;;;;;2.10;1.20;;;;;;;5.89;100.00;100906.53;5055445;28;20492;-69
2020/12/14 02:58:04;;;;;;;0.80;0.80;;;;;;;5.91;100.00;100890.97;5055147;28;20438;-69
2020/12/14 03:00:31;;;;;;;0.50;0.50;;;;;;;5.91;100.00;100896.34;5055077;28;20997;-69
2020/12/14 03:02:58;;;;;;;0.40;0.30;;;;;;;5.87;100.00;100895.25;5054998;28;20438;-68
2020/12/14 03:05:24;;;;;;;0.90;0.83;;;;;;;5.86;100.00;100904.38;5054928;28;21042;-69
2020/12/14 03:07:50;;;;;;;0.40;0.30;;;;;;;5.86;100.00;100909.78;5055209;28;20443;-69
2020/12/14 03:10:17;;;;;;;8.13;3.50;;;;;;;5.87;100.00;100912.19;5055168;28;20496;-67
2020/12/14 03:12:43;;;;;;;3.40;1.23;;;;;;;5.81;100.00;100914.03;5055074;28;20486;-68
2020/12/14 03:15:09;;;;;;;0.70;0.40;;;;;;;5.79;100.00;100913.47;5054678;28;20978;-69
2020/12/14 03:17:36;;;;;;;4.60;1.80;;;;;;;5.77;100.00;100902.19;5055085;28;20442;-68
2020/12/14 03:20:03;;;;;;;1.53;1.27;;;;;;;5.77;100.00;100904.88;5055057;28;20444;-67
2020/12/14 03:22:29;;;;;;;1.07;1.07;;;;;;;5.79;100.00;100894.66;5054698;28;20464;-67
2020/12/14 03:24:55;;;;;;;3.20;1.27;;;;;;;5.85;100.00;100902.78;5054860;28;20808;-69
2020/12/14 03:27:21;;;;;;;16.03;2.90;;;;;;;5.88;100.00;100904.94;5054986;28;20442;-68
2020/12/14 03:29:48;;;;;;;6.47;1.80;;;;;;;5.90;100.00;100900.13;5053793;28;20500;-69
2020/12/14 03:32:14;;;;;;;0.77;0.77;;;;;;;5.87;100.00;100889.88;5054491;28;20995;-68
2020/12/14 03:34:41;;;;;;;4.17;1.63;;;;;;;5.85;100.00;100892.03;5055797;28;20466;-68
2020/12/14 03:37:07;;;;;;;1.90;1.80;;;;;;;5.90;100.00;100890.16;5055584;28;20442;-69
2020/12/14 03:39:33;;;;;;;5.23;3.47;;;;;;;5.93;100.00;100884.31;5054465;28;20997;-67
2020/12/14 03:41:59;;;;;;;1.80;1.70;;;;;;;5.95;100.00;100870.59;5054595;28;20507;-68
2020/12/14 03:44:25;;;;;;;0.60;0.50;;;;;;;5.96;100.00;100872.19;5054515;28;20549;-69
2020/12/14 03:46:51;;;;;;;1.33;1.23;;;;;;;6.02;100.00;100880.03;5054498;28;20438;-67
2020/12/14 03:49:18;;;;;;;1.17;1.07;;;;;;;5.97;100.00;100868.44;5054386;28;20448;-68
2020/12/14 03:51:45;;;;;;;1.77;1.67;;;;;;;6.00;100.00;100868.72;5054406;28;20446;-68
2020/12/14 03:54:11;;;;;;;10.80;1.60;;;;;;;6.04;100.00;100879.75;5054515;28;20513;-69
2020/12/14 03:56:37;;;;;;;5.97;0.83;;;;;;;6.06;100.00;100866.84;5054352;28;20494;-68
2020/12/14 03:59:03;;;;;;;6.37;1.23;;;;;;;6.05;100.00;100876.00;5054254;28;20481;-67
2020/12/14 04:01:30;;;;;;;3.60;0.93;;;;;;;6.10;100.00;100872.50;5053927;28;20476;-68
2020/12/14 04:03:56;;;;;;;2.10;0.83;;;;;;;6.10;100.00;100875.19;5053738;28;20458;-68
2020/12/14 04:06:24;;;;;;;3.23;0.97;;;;;;;6.02;100.00;100865.75;5053782;28;21009;-68
2020/12/14 04:08:52;;;;;;;4.53;1.30;;;;;;;6.01;100.00;100869.53;5053959;28;20439;-68
2020/12/14 04:11:19;;;;;;;8.00;2.30;;;;;;;5.92;100.00;100858.47;5053954;28;20451;-67
2020/12/14 04:13:46;;;;;;;2.03;1.23;;;;;;;5.90;100.00;100862.47;5053534;28;20490;-69
2020/12/14 04:16:13;;;;;;;1.53;1.43;;;;;;;5.93;100.00;100867.34;5053906;28;20446;-69
2020/12/14 04:18:39;;;;;;;3.33;1.30;;;;;;;5.91;100.00;100866.78;5053918;28;20488;-67
2020/12/14 04:21:07;;;;;;;5.63;1.40;;;;;;;5.95;100.00;100867.91;5053542;28;21000;-67
2020/12/14 04:23:33;;;;;;;0.40;0.30;;;;;;;5.92;100.00;100866.53;5053824;28;20466;-68
2020/12/14 04:26:00;;;;;;;0.70;0.70;;;;;;;5.96;100.00;100864.13;5053640;28;20515;-67
2020/12/14 04:28:26;;;;;;;2.53;1.77;;;;;;;5.98;100.00;100864.69;5053430;28;20446;-68
2020/12/14 04:30:52;;;;;;;1.27;1.17;;;;;;;5.97;100.00;100873.81;5053630;28;20433;-68
2020/12/14 04:33:19;;;;;;;17.00;3.23;;;;;;;5.97;100.00;100877.31;5053274;28;20486;-68
2020/12/14 04:35:48;;;;;;;1.80;1.67;;;;;;;5.95;100.00;100865.22;5064174;22;20494;-79
2020/12/14 04:38:15;;;;;;;2.30;1.87;;;;;;;6.02;100.00;100876.50;5056073;28;20488;-79
2020/12/14 04:40:41;;;;;;;1.60;1.50;;;;;;;6.01;100.00;100880.28;5055943;28;20434;-80
2020/12/14 04:43:09;;;;;;;9.00;1.50;;;;;;;6.03;100.00;100886.22;5056486;28;20462;-79
2020/12/14 04:45:37;;;;;;;2.50;1.90;;;;;;;6.07;100.00;100879.25;5056127;28;20466;-80
2020/12/14 04:48:03;;;;;;;1.77;1.60;;;;;;;6.04;100.00;100880.56;5056616;28;20476;-79
2020/12/14 04:50:30;;;;;;;1.80;1.23;;;;;;;6.04;100.00;100887.81;5056288;28;20928;-79
2020/12/14 04:52:57;;;;;;;2.53;1.57;;;;;;;5.97;100.00;100876.50;5055681;28;20478;-79
2020/12/14 04:55:24;;;;;;;0.80;0.50;;;;;;;6.03;100.00;100884.34;5056086;28;20500;-79
2020/12/14 04:57:52;;;;;;;1.53;1.13;;;;;;;6.02;100.00;100881.88;5056605;28;20454;-78
2020/12/14 05:00:20;;;;;;;0.40;0.40;;;;;;;6.05;100.00;100881.38;5056273;28;20496;-79
2020/12/14 05:02:54;;;;;;;0.60;0.40;;;;;;;5.94;100.00;100879.72;5056574;28;20466;-78
2020/12/14 05:05:20;;;;;;;0.53;0.43;;;;;;;5.84;100.00;100888.50;5056141;28;20915;-78
2020/12/14 05:07:46;;;;;;;13.50;1.90;;;;;;;5.86;100.00;100894.44;5056126;28;20439;-79
2020/12/14 05:10:15;;;;;;;1.33;1.23;;;;;;;5.81;100.00;100892.53;5056715;28;20450;-79
2020/12/14 05:12:42;;;;;;;2.83;1.30;;;;;;;5.86;100.00;100897.13;5056946;28;20490;-79
2020/12/14 05:15:24;;;;;;;2.67;2.07;;;;;;;5.87;100.00;100900.63;5055993;28;20442;-79
2020/12/14 05:17:51;;;;;;;0.97;0.87;;;;;;;5.85;100.00;100900.91;5056612;28;20450;-79
2020/12/14 05:20:19;;;;;;;3.23;1.97;;;;;;;5.85;100.00;100910.84;5056562;28;20434;-79
2020/12/14 05:22:59;;;;;;;0.73;0.73;;;;;;;5.80;100.00;100899.00;5056457;28;20463;-80
2020/12/14 05:25:26;;;;;;;1.47;1.40;;;;;;;5.72;100.00;100894.09;5056827;28;20415;-79
2020/12/14 05:28:07;;;;;;;1.20;0.70;;;;;;;5.67;100.00;100891.41;5057181;28;20994;-80
2020/12/14 05:30:39;;;;;;;0.50;0.40;;;;;;;5.62;100.00;100883.28;5057842;28;20442;-80
2020/12/14 05:33:07;;;;;;;0.50;0.40;;;;;;;5.52;100.00;100888.59;5057732;28;20544;-80
2020/12/14 05:35:35;;;;;;;3.33;0.80;;;;;;;5.48;100.00;100887.50;5057870;28;20458;-79
2020/12/14 05:38:15;;;;;;;1.23;0.63;;;;;;;5.46;100.00;100892.34;5057139;28;20453;-80
2020/12/14 05:40:42;;;;;;;0.73;0.70;;;;;;;5.51;100.00;100884.31;5058726;28;20936;-80
2020/12/14 05:43:10;;;;;;;0.67;0.57;;;;;;;5.46;100.00;100879.72;5057330;28;20457;-79
2020/12/14 05:45:37;;;;;;;2.57;1.70;;;;;;;5.45;100.00;100877.31;5058224;28;20439;-79
2020/12/14 05:48:05;;;;;;;3.20;2.07;;;;;;;5.44;100.00;100875.66;5057318;28;20936;-80
2020/12/14 05:50:31;;;;;;;2.17;1.10;;;;;;;5.41;100.00;100884.25;5057762;28;20472;-79
2020/12/14 05:53:05;;;;;;;2.00;1.23;;;;;;;5.40;100.00;100875.41;5058971;28;20539;-79
2020/12/14 05:55:34;;;;;;;1.73;1.63;;;;;;;5.34;100.00;100878.28;5062405;28;20440;-79
2020/12/14 05:58:02;;;;;;;0.77;0.70;;;;;;;5.35;100.00;100871.84;5061855;28;21005;-80
2020/12/14 06:00:31;;;;;;;1.93;1.83;;;;;;;5.40;100.00;100886.13;5063254;28;20495;-79
2020/12/14 06:02:59;;;;;;;0.70;0.40;;;;;;;5.45;100.00;100878.09;5064517;28;20466;-80
2020/12/14 06:05:27;;;;;;;3.97;3.60;;;;;;;5.44;100.00;100891.78;5062494;28;20450;-80
2020/12/14 06:08:01;;;;;;;0.70;0.70;;;;;;;5.46;100.00;100885.09;5079983;28;20446;-79
2020/12/14 06:10:31;;;;;;;0.50;0.47;;;;;;;5.41;100.00;100877.00;5080117;28;20452;-79
2020/12/14 06:13:07;;;;;;;1.60;1.23;;;;;;;5.42;100.00;100880.50;5079478;28;20906;-80
2020/12/14 06:15:34;;;;;;;3.53;1.30;;;;;;;5.45;100.00;100885.38;5079169;28;20781;-79
2020/12/14 06:18:03;;;;;;;2.10;1.70;;;;;;;5.44;100.00;100878.34;5080013;28;20472;-79
2020/12/14 06:20:31;;;;;;;0.40;0.30;;;;;;;5.43;100.00;100876.75;5079776;28;20883;-80
2020/12/14 06:23:02;;;;;;;2.63;1.67;;;;;;;5.48;100.00;100876.75;5079600;28;20523;-79
2020/12/14 06:25:29;;;;;;;0.40;0.40;;;;;;;5.46;100.00;100884.28;5080186;28;20479;-79
2020/12/14 06:27:55;;;;;;;3.43;1.70;;;;;;;5.44;100.00;100889.91;5080637;28;20493;-79
2020/12/14 06:30:32;;;;;;;2.30;2.10;;;;;;;5.41;100.00;100877.00;5080525;28;20430;-79
2020/12/14 06:33:00;;;;;;;1.93;1.50;;;;;;;5.34;100.00;100887.16;5080239;28;20500;-80
2020/12/14 06:35:49;;;;;;;0.60;0.60;;;;;;;5.29;100.00;100882.56;5082168;28;20440;-80
2020/12/14 06:38:36;;;;;;;1.53;0.77;;;;;;;5.28;100.00;100886.31;5081567;28;20442;-80
2020/12/14 06:41:03;;;;;;;0.50;0.40;;;;;;;5.24;100.00;100879.84;5080961;28;20418;-80
2020/12/14 06:43:31;;;;;;;1.53;1.13;;;;;;;5.24;100.00;100877.16;5079361;28;20499;-80
2020/12/14 06:45:58;;;;;;;15.90;2.30;;;;;;;5.10;100.00;100880.56;5079748;28;20449;-82
2020/12/14 06:48:36;;;;;;;1.90;1.33;;;;;;;5.12;100.00;100873.84;5083290;28;20467;-81
2020/12/14 06:51:05;;;;;;;0.40;0.30;;;;;;;5.16;100.00;100866.91;5080709;28;20432;-82
2020/12/14 06:53:47;;;;;;;0.50;0.43;;;;;;;5.18;100.00;100877.38;5079827;28;20528;-79
2020/12/14 06:56:15;;;;;;;0.40;0.30;;;;;;;5.19;100.00;100885.19;5083343;28;20453;-80
2020/12/14 06:58:43;;;;;;;4.53;1.00;;;;;;;5.24;100.00;100881.72;5086821;28;20488;-80
2020/12/14 07:01:34;;;;;;;3.37;2.30;;;;;;;5.28;100.00;100883.63;5078578;28;20429;-80
2020/12/14 07:04:01;;;;;;;1.93;1.77;;;;;;;5.29;100.00;100879.06;5078772;28;20465;-80
2020/12/14 07:06:30;;;;;;;1.60;1.50;;;;;;;5.42;100.00;100893.94;5079017;28;20433;-80
2020/12/14 07:08:57;;;;;;;0.57;0.57;;;;;;;5.42;100.00;100877.81;5078765;28;20456;-80
2020/12/14 07:11:24;;;;;;;8.00;0.83;;;;;;;5.42;100.00;100875.13;5079745;28;20445;-80
2020/12/14 07:13:51;;;;;;;4.30;1.90;;;;;;;5.47;100.00;100875.97;5078577;28;20898;-81
2020/12/14 07:16:19;;;;;;;2.33;0.60;;;;;;;5.47;100.00;100877.84;5079066;28;20499;-81
2020/12/14 07:18:48;;;;;;;1.43;0.67;;;;;;;5.52;100.00;100886.72;5078776;28;20449;-81
2020/12/14 07:21:15;;;;;;;1.73;1.60;;;;;;;5.50;100.00;100890.75;5078765;28;20857;-81
2020/12/14 07:23:44;;;;;;;0.70;0.70;;;;;;;5.49;100.00;100889.97;5078203;28;20978;-81
2020/12/14 07:26:12;;;;;;;1.03;0.93;;;;;;;5.46;100.00;100887.78;5078006;28;20437;-80
2020/12/14 07:28:45;;;;;;;0.67;0.67;;;;;;;5.45;100.00;100885.38;5077986;28;20449;-81
2020/12/14 07:31:14;;;;;;;10.20;1.73;;;;;;;5.42;100.00;100888.56;5077468;28;20448;-80
2020/12/14 07:33:49;;;;;;;2.10;0.70;;;;;;;5.36;100.00;100879.66;5077372;28;21002;-81
2020/12/14 07:36:16;;;;;;;0.50;0.50;;;;;;;5.25;100.00;100884.13;5077373;28;20460;-80
2020/12/14 07:38:51;;;;;;;6.70;2.10;;;;;;;5.19;100.00;100885.19;5078679;28;20445;-80
2020/12/14 07:41:18;;;;;;;2.67;1.57;;;;;;;5.13;100.00;100886.19;5078315;28;20424;-80
2020/12/14 07:43:50;;;;;;;3.30;1.33;;;;;;;5.04;100.00;100893.09;5077939;28;20461;-80
2020/12/14 07:46:24;;;;;;;0.97;0.70;;;;;;;5.06;100.00;100893.69;5077206;28;20430;-80
2020/12/14 07:48:55;;;;;;;1.10;0.83;;;;;;;5.07;100.00;100892.59;5077476;28;20430;-78
2020/12/14 07:51:22;;;;;;;1.10;0.73;;;;;;;4.99;100.00;100879.66;5077480;28;20410;-80
2020/12/14 07:53:51;;;;;;;1.77;1.53;;;;;;;5.01;100.00;100874.84;5076713;28;20497;-81
2020/12/14 07:56:18;;;;;;;1.43;0.60;;;;;;;4.97;100.00;100879.91;5077758;28;20495;-81
2020/12/14 07:58:46;;;;;;;5.60;2.60;;;;;;;4.96;100.00;100885.53;5077203;28;20452;-81
2020/12/14 08:01:14;;;;;;;2.00;1.33;;;;;;;5.03;100.00;100886.13;5077065;28;20429;-80
2020/12/14 08:03:40;;;;;;;4.00;1.13;;;;;;;5.03;100.00;100875.38;5077426;28;20519;-80
2020/12/14 08:06:14;;;;;;;1.43;1.33;;;;;;;5.07;100.00;100881.88;5076843;28;20444;-80
2020/12/14 08:08:42;;;;;;;1.20;0.57;;;;;;;5.09;100.00;100878.91;5077782;28;20426;-80
2020/12/14 08:11:11;;;;;;;0.53;0.50;;;;;;;5.12;100.00;100875.72;5077380;28;20429;-80
2020/12/14 08:13:38;;;;;;;5.33;1.80;;;;;;;5.17;100.00;100871.19;5077370;28;20568;-80
2020/12/14 08:16:06;;;;;;;0.57;0.57;;;;;;;5.19;100.00;100877.13;5077410;28;20438;-80
2020/12/14 08:18:34;;;;;;;1.00;0.77;;;;;;;5.26;100.00;100875.00;5078071;28;20453;-80
2020/12/14 08:21:00;;;;;;;0.47;0.47;;;;;;;5.25;100.00;100868.03;5077654;28;20436;-80
2020/12/14 08:23:30;;;;;;;4.63;1.40;;;;;;;5.30;100.00;100869.94;5079515;28;20453;-81
2020/12/14 08:25:58;;;;;;;2.17;1.57;;;;;;;5.38;100.00;100868.66;5078333;28;20426;-79
2020/12/14 08:28:29;;;;;;;0.50;0.30;;;;;;;5.42;100.00;100867.06;5079194;28;20433;-79
2020/12/14 08:30:56;;;;;;;3.60;1.73;;;;;;;5.45;100.00;100871.94;5079305;28;20430;-79
2020/12/14 08:33:24;;;;;;;0.73;0.67;;;;;;;5.46;100.00;100874.34;5078747;28;20493;-80
2020/12/14 08:35:52;;;;;;;0.40;0.30;;;;;;;5.42;100.00;100873.25;5079035;28;20449;-79
2020/12/14 08:38:20;;;;;;;3.70;1.97;;;;;;;5.47;100.00;100872.47;5079631;28;20425;-79
2020/12/14 08:40:52;;;;;;;0.63;0.63;;;;;;;5.51;100.00;100876.25;5080575;28;20441;-79
2020/12/14 08:43:19;;;;;;;0.60;0.60;;;;;;;5.63;100.00;100879.56;5079727;28;20462;-79
2020/12/14 08:46:00;;;;;;;1.67;1.30;;;;;;;5.72;100.00;100878.00;5077816;28;20487;-79
2020/12/14 08:48:27;;;;;;;0.50;0.50;;;;;;;5.80;100.00;100868.63;5076432;28;20445;-79
2020/12/14 08:51:07;;;;;;;3.00;1.47;;;;;;;5.87;100.00;100876.44;5076969;28;20467;-79
2020/12/14 08:53:34;;;;;;;1.17;0.97;;;;;;;5.90;100.00;100873.22;5078536;28;20543;-79
2020/12/14 08:56:07;;;;;;;0.80;0.63;;;;;;;5.85;100.00;100881.28;5077781;28;20433;-79
2020/12/14 08:58:45;;;;;;;2.70;1.03;;;;;;;5.93;100.00;100878.09;5079706;28;20532;-79
2020/12/14 09:01:13;;;;;;;2.53;1.13;;;;;;;6.01;100.00;100869.53;5082258;28;20487;-79
2020/12/14 09:03:52;;;;;;;2.30;1.90;;;;;;;6.10;100.00;100873.31;5081764;28;20461;-79
2020/12/14 09:06:23;;;;;;;1.27;0.97;;;;;;;6.16;100.00;100887.63;5080788;28;20460;-80
2020/12/14 09:08:57;;;;;;;0.70;0.50;;;;;;;6.18;100.00;100888.94;5079966;28;20402;-80
2020/12/14 09:11:28;;;;;;;0.60;0.60;;;;;;;6.23;100.00;100888.16;5080889;28;20502;-79
2020/12/14 09:13:54;;;;;;;1.17;1.07;;;;;;;6.23;99.81;100867.44;5077540;28;20568;-81
2020/12/14 09:16:23;;;;;;;3.00;1.33;;;;;;;6.20;99.74;100869.88;5080142;28;20441;-80
2020/12/14 09:18:49;;;;;;;1.30;0.53;;;;;;;6.22;99.54;100865.84;5080725;28;20437;-81
2020/12/14 09:21:16;;;;;;;0.50;0.40;;;;;;;6.36;99.24;100866.13;5083255;28;20450;-81
2020/12/14 09:23:42;;;;;;;0.50;0.30;;;;;;;6.47;98.45;100861.59;5083713;28;20491;-82
2020/12/14 09:26:09;;;;;;;1.77;0.57;;;;;;;6.54;97.76;100872.88;5085433;28;20445;-82
2020/12/14 09:28:36;;;;;;;6.03;0.80;;;;;;;6.54;97.64;100865.63;5088324;28;20429;-82
2020/12/14 09:31:02;;;;;;;2.07;1.33;;;;;;;6.63;97.15;100870.47;5091226;28;20449;-81
2020/12/14 09:33:30;;;;;;;2.37;1.03;;;;;;;6.72;96.23;100853.53;5090949;28;20979;-79
2020/12/14 09:35:56;;;;;;;0.50;0.40;;;;;;;6.82;95.87;100861.63;5087593;28;20445;-79
2020/12/14 09:38:23;;;;;;;0.43;0.33;;;;;;;6.88;95.75;100861.63;5092654;28;20437;-80
2020/12/14 09:40:54;;;;;;;8.63;1.63;;;;;;;6.95;94.57;100859.47;5079465;28;20453;-79
2020/12/14 09:43:21;;;;;;;1.90;1.27;;;;;;;6.98;94.18;100858.91;5071330;28;20474;-79
2020/12/14 09:45:51;;;;;;;0.73;0.73;;;;;;;6.99;93.26;100847.88;5072093;28;20438;-80
2020/12/14 09:48:28;;;;;;;5.03;1.77;;;;;;;7.01;93.04;100855.69;5071402;28;20525;-82
2020/12/14 09:50:55;;;;;;;0.57;0.57;;;;;;;7.09;92.75;100847.09;5077452;28;20434;-79
2020/12/14 09:53:39;;;;;;;2.97;1.20;;;;;;;7.16;92.84;100844.91;5079113;28;20514;-80
2020/12/14 09:56:08;;;;;;;0.93;0.60;;;;;;;7.29;92.40;100852.41;5047934;28;20453;-80
2020/12/14 09:58:34;;;;;;;3.00;0.90;;;;;;;7.37;91.56;100850.25;5058142;28;20445;-79
2020/12/14 10:01:00;;;;;;;1.67;1.57;;;;;;;7.38;91.76;100854.56;5059495;28;20438;-79
2020/12/14 10:03:26;;;;;;;0.50;0.40;;;;;;;7.29;91.18;100857.81;5059716;28;20465;-79
2020/12/14 10:05:53;;;;;;;3.10;1.70;;;;;;;7.30;90.83;100848.66;5059377;28;20472;-79
2020/12/14 10:08:20;;;;;;;0.97;0.50;;;;;;;7.26;91.29;100857.53;5058729;28;20841;-79
2020/12/14 10:10:49;;;;;;;3.03;1.90;;;;;;;7.38;90.90;100859.94;5059850;28;20461;-79
2020/12/14 10:13:15;;;;;;;0.40;0.30;;;;;;;7.44;90.45;100848.91;5058662;28;20543;-79
2020/12/14 10:15:41;;;;;;;1.17;1.07;;;;;;;7.51;90.26;100856.69;5058362;28;20845;-79
2020/12/14 10:18:07;;;;;;;0.77;0.77;;;;;;;7.42;90.38;100851.06;5059003;28;20994;-79
2020/12/14 10:20:34;;;;;;;0.80;0.80;;;;;;;7.41;90.29;100849.44;5058434;28;20507;-80
2020/12/14 10:23:00;;;;;;;1.47;0.70;;;;;;;7.42;90.53;100851.06;5059564;28;20462;-79
2020/12/14 10:25:27;;;;;;;1.20;1.10;;;;;;;7.52;89.99;100850.22;5059399;28;20446;-79
2020/12/14 10:27:53;;;;;;;1.57;1.23;;;;;;;7.67;89.59;100852.06;5058370;28;20464;-79
2020/12/14 10:30:21;;;;;;;1.80;1.43;;;;;;;7.72;89.36;100850.16;5059629;28;20500;-80
2020/12/14 10:32:47;;;;;;;3.17;1.90;;;;;;;7.70;88.92;100841.56;5058990;28;20557;-79
2020/12/14 10:35:14;;;;;;;0.40;0.30;;;;;;;7.73;89.48;100846.38;5059342;28;20466;-80
2020/12/14 10:37:40;;;;;;;0.40;0.40;;;;;;;7.81;89.04;100840.41;5059468;28;20847;-80
2020/12/14 10:40:07;;;;;;;2.07;1.87;;;;;;;7.86;88.96;100830.69;5060114;28;20438;-80
2020/12/14 10:42:34;;;;;;;3.30;2.63;;;;;;;7.89;88.55;100840.94;5059841;28;20454;-79
2020/12/14 10:45:04;;;;;;;1.07;1.03;;;;;;;7.91;88.21;100836.06;5059993;28;20438;-79
2020/12/14 10:47:30;;;;;;;1.20;1.10;;;;;;;7.78;88.85;100827.47;5060691;28;20448;-79
2020/12/14 10:49:56;;;;;;;1.50;1.27;;;;;;;7.77;88.78;100835.84;5060051;28;20446;-78
2020/12/14 10:52:23;;;;;;;0.77;0.77;;;;;;;7.80;89.17;100840.69;5057988;28;20496;-78
2020/12/14 10:54:50;;;;;;;0.60;0.43;;;;;;;7.81;89.08;100835.03;5058242;28;20486;-77
2020/12/14 10:57:17;;;;;;;2.10;1.90;;;;;;;7.81;90.06;100832.31;5056979;28;20503;-78
2020/12/14 10:59:44;;;;;;;1.03;0.80;;;;;;;7.84;89.56;100831.78;5057006;28;20816;-77
2020/12/14 11:02:11;;;;;;;2.67;2.57;;;;;;;7.95;89.31;100826.34;5056496;28;20451;-78
2020/12/14 11:04:37;;;;;;;1.33;1.23;;;;;;;8.02;88.81;100834.94;5057457;28;20458;-79
2020/12/14 11:07:06;;;;;;;4.10;2.67;;;;;;;8.12;88.55;100826.78;5058547;28;20504;-77
2020/12/14 11:09:32;;;;;;;4.30;1.30;;;;;;;8.18;88.67;100827.56;5055827;28;20869;-78
2020/12/14 11:11:58;;;;;;;1.33;1.23;;;;;;;8.32;88.75;100825.84;5054919;28;20458;-77
2020/12/14 11:14:27;;;;;;;5.50;1.67;;;;;;;8.39;87.43;100820.97;5036812;28;20495;-78
2020/12/14 11:16:55;;;;;;;2.90;1.20;;;;;;;8.46;87.10;100820.69;5036360;28;20466;-78
2020/12/14 11:19:22;;;;;;;1.63;1.53;;;;;;;8.53;86.82;100816.56;5036282;28;20440;-78
2020/12/14 11:21:52;;;;;;;0.83;0.83;;;;;;;8.68;86.15;100818.34;5036433;28;20873;-78
2020/12/14 11:24:18;;;;;;;0.80;0.80;;;;;;;8.82;85.20;100813.91;5035849;28;20459;-78
2020/12/14 11:26:45;;;;;;;3.80;0.70;;;;;;;8.90;84.84;100812.50;5036252;28;20450;-78
2020/12/14 11:29:12;;;;;;;2.40;1.63;;;;;;;8.89;85.02;100810.06;5036972;28;20490;-78
2020/12/14 11:31:38;;;;;;;0.53;0.40;;;;;;;9.07;84.07;100809.34;5038943;28;20431;-78